sensor_id;sensor_type;location;lat;lon;timestamp;P1;durP1;ratioP1;P2;durP2;ratioP2
3643;SDS011;1838;50.742;7.158;2023-07-31T00:01:19;6.83;;;3.70;;
3643;SDS011;1838;50.742;7.158;2023-07-31T00:03:45;8.73;;;4.03;;
3643;SDS011;1838;50.742;7.158;2023-07-31T00:06:11;4.23;;;3.20;;
3643;SDS011;1838;50.742;7.158;2023-07-31T00:08:37;6.70;;;3.60;;
3643;SDS011;1838;50.742;7.158;2023-07-31T00:11:02;6.37;;;3.93;;
3643;SDS011;1838;50.742;7.158;2023-07-31T00:13:28;11.10;;;3.47;;
3643;SDS011;1838;50.742;7.158;2023-07-31T00:15:53;7.70;;;3.10;;
3643;SDS011;1838;50.742;7.158;2023-07-31T00:18:19;5.77;;;3.37;;
3643;SDS011;1838;50.742;7.158;2023-07-31T00:20:44;8.30;;;3.47;;
3643;SDS011;1838;50.742;7.158;2023-07-31T00:23:10;5.47;;;3.40;;
3643;SDS011;1838;50.742;7.158;2023-07-31T00:25:35;5.23;;;3.63;;
3643;SDS011;1838;50.742;7.158;2023-07-31T00:28:01;6.73;;;4.10;;
3643;SDS011;1838;50.742;7.158;2023-07-31T00:30:26;9.20;;;3.60;;
3643;SDS011;1838;50.742;7.158;2023-07-31T00:32:52;9.23;;;3.50;;
3643;SDS011;1838;50.742;7.158;2023-07-31T00:35:17;5.40;;;3.33;;
3643;SDS011;1838;50.742;7.158;2023-07-31T00:37:43;10.20;;;3.13;;
3643;SDS011;1838;50.742;7.158;2023-07-31T00:40:08;4.00;;;2.63;;
3643;SDS011;1838;50.742;7.158;2023-07-31T00:42:34;4.47;;;2.87;;
3643;SDS011;1838;50.742;7.158;2023-07-31T00:45:00;7.30;;;3.27;;
3643;SDS011;1838;50.742;7.158;2023-07-31T00:47:25;10.60;;;3.57;;
3643;SDS011;1838;50.742;7.158;2023-07-31T00:49:51;3.73;;;2.30;;
3643;SDS011;1838;50.742;7.158;2023-07-31T00:52:17;3.37;;;2.33;;
3643;SDS011;1838;50.742;7.158;2023-07-31T00:54:44;6.63;;;3.10;;
3643;SDS011;1838;50.742;7.158;2023-07-31T00:57:09;8.23;;;3.07;;
3643;SDS011;1838;50.742;7.158;2023-07-31T00:59:35;7.13;;;2.93;;
3643;SDS011;1838;50.742;7.158;2023-07-31T01:02:01;5.70;;;2.70;;
3643;SDS011;1838;50.742;7.158;2023-07-31T01:04:27;5.37;;;3.10;;
3643;SDS011;1838;50.742;7.158;2023-07-31T01:07:01;5.60;;;2.93;;
3643;SDS011;1838;50.742;7.158;2023-07-31T01:09:32;7.50;;;2.30;;
3643;SDS011;1838;50.742;7.158;2023-07-31T01:12:02;2.73;;;2.40;;
3643;SDS011;1838;50.742;7.158;2023-07-31T01:14:29;10.03;;;3.57;;
3643;SDS011;1838;50.742;7.158;2023-07-31T01:16:55;4.37;;;2.60;;
3643;SDS011;1838;50.742;7.158;2023-07-31T01:19:24;3.33;;;2.87;;
3643;SDS011;1838;50.742;7.158;2023-07-31T01:21:58;6.40;;;3.00;;
3643;SDS011;1838;50.742;7.158;2023-07-31T01:25:07;4.50;;;2.80;;
3643;SDS011;1838;50.742;7.158;2023-07-31T01:27:51;6.77;;;2.90;;
3643;SDS011;1838;50.742;7.158;2023-07-31T01:30:25;3.20;;;2.50;;
3643;SDS011;1838;50.742;7.158;2023-07-31T01:32:53;6.10;;;3.00;;
3643;SDS011;1838;50.742;7.158;2023-07-31T01:35:21;4.93;;;2.53;;
3643;SDS011;1838;50.742;7.158;2023-07-31T01:37:46;5.93;;;2.97;;
3643;SDS011;1838;50.742;7.158;2023-07-31T01:40:12;5.47;;;2.80;;
3643;SDS011;1838;50.742;7.158;2023-07-31T01:42:37;4.73;;;3.07;;
3643;SDS011;1838;50.742;7.158;2023-07-31T01:45:03;4.80;;;2.23;;
3643;SDS011;1838;50.742;7.158;2023-07-31T01:47:29;3.50;;;2.87;;
3643;SDS011;1838;50.742;7.158;2023-07-31T01:49:54;4.40;;;2.83;;
3643;SDS011;1838;50.742;7.158;2023-07-31T01:52:20;7.50;;;3.00;;
3643;SDS011;1838;50.742;7.158;2023-07-31T01:54:46;4.50;;;3.10;;
3643;SDS011;1838;50.742;7.158;2023-07-31T01:57:11;5.87;;;2.80;;
3643;SDS011;1838;50.742;7.158;2023-07-31T01:59:37;5.40;;;3.43;;
3643;SDS011;1838;50.742;7.158;2023-07-31T02:02:02;6.83;;;2.83;;
3643;SDS011;1838;50.742;7.158;2023-07-31T02:04:28;5.70;;;2.83;;
3643;SDS011;1838;50.742;7.158;2023-07-31T02:06:53;8.63;;;3.40;;
3643;SDS011;1838;50.742;7.158;2023-07-31T02:09:19;4.77;;;3.30;;
3643;SDS011;1838;50.742;7.158;2023-07-31T02:11:44;8.10;;;3.07;;
3643;SDS011;1838;50.742;7.158;2023-07-31T02:14:10;4.90;;;3.20;;
3643;SDS011;1838;50.742;7.158;2023-07-31T02:16:35;3.50;;;2.67;;
3643;SDS011;1838;50.742;7.158;2023-07-31T02:19:01;5.23;;;3.50;;
3643;SDS011;1838;50.742;7.158;2023-07-31T02:21:26;5.37;;;2.90;;
3643;SDS011;1838;50.742;7.158;2023-07-31T02:23:52;6.47;;;3.27;;
3643;SDS011;1838;50.742;7.158;2023-07-31T02:26:17;8.10;;;3.37;;
3643;SDS011;1838;50.742;7.158;2023-07-31T02:28:42;7.40;;;3.67;;
3643;SDS011;1838;50.742;7.158;2023-07-31T02:31:08;5.57;;;3.90;;
3643;SDS011;1838;50.742;7.158;2023-07-31T02:33:34;8.77;;;3.67;;
3643;SDS011;1838;50.742;7.158;2023-07-31T02:35:59;5.60;;;3.27;;
3643;SDS011;1838;50.742;7.158;2023-07-31T02:38:25;4.30;;;3.50;;
3643;SDS011;1838;50.742;7.158;2023-07-31T02:40:51;5.90;;;3.40;;
3643;SDS011;1838;50.742;7.158;2023-07-31T02:43:16;4.07;;;3.67;;
3643;SDS011;1838;50.742;7.158;2023-07-31T02:45:42;6.00;;;3.33;;
3643;SDS011;1838;50.742;7.158;2023-07-31T02:48:07;11.63;;;3.83;;
3643;SDS011;1838;50.742;7.158;2023-07-31T02:50:33;5.30;;;3.37;;
3643;SDS011;1838;50.742;7.158;2023-07-31T02:52:58;9.73;;;4.23;;
3643;SDS011;1838;50.742;7.158;2023-07-31T02:55:24;7.27;;;3.77;;
3643;SDS011;1838;50.742;7.158;2023-07-31T02:57:49;7.77;;;3.40;;
3643;SDS011;1838;50.742;7.158;2023-07-31T03:00:17;5.70;;;3.40;;
3643;SDS011;1838;50.742;7.158;2023-07-31T03:02:42;6.83;;;4.00;;
3643;SDS011;1838;50.742;7.158;2023-07-31T03:05:08;8.53;;;3.70;;
3643;SDS011;1838;50.742;7.158;2023-07-31T03:07:33;4.90;;;3.87;;
3643;SDS011;1838;50.742;7.158;2023-07-31T03:09:59;4.73;;;3.10;;
3643;SDS011;1838;50.742;7.158;2023-07-31T03:12:24;6.90;;;2.90;;
3643;SDS011;1838;50.742;7.158;2023-07-31T03:14:50;7.93;;;3.40;;
3643;SDS011;1838;50.742;7.158;2023-07-31T03:17:15;7.73;;;4.10;;
3643;SDS011;1838;50.742;7.158;2023-07-31T03:19:41;7.70;;;3.47;;
3643;SDS011;1838;50.742;7.158;2023-07-31T03:22:06;4.73;;;3.37;;
3643;SDS011;1838;50.742;7.158;2023-07-31T03:24:32;4.83;;;3.70;;
3643;SDS011;1838;50.742;7.158;2023-07-31T03:26:57;10.03;;;4.03;;
3643;SDS011;1838;50.742;7.158;2023-07-31T03:29:22;7.37;;;3.90;;
3643;SDS011;1838;50.742;7.158;2023-07-31T03:31:48;11.70;;;3.47;;
3643;SDS011;1838;50.742;7.158;2023-07-31T03:34:14;6.00;;;3.37;;
3643;SDS011;1838;50.742;7.158;2023-07-31T03:36:39;5.00;;;3.67;;
3643;SDS011;1838;50.742;7.158;2023-07-31T03:39:05;4.67;;;3.30;;
3643;SDS011;1838;50.742;7.158;2023-07-31T03:41:30;6.83;;;3.60;;
3643;SDS011;1838;50.742;7.158;2023-07-31T03:43:56;6.13;;;3.43;;
3643;SDS011;1838;50.742;7.158;2023-07-31T03:46:22;8.87;;;3.53;;
3643;SDS011;1838;50.742;7.158;2023-07-31T03:48:48;11.07;;;3.80;;
3643;SDS011;1838;50.742;7.158;2023-07-31T03:51:14;5.77;;;3.17;;
3643;SDS011;1838;50.742;7.158;2023-07-31T03:53:40;6.83;;;3.43;;
3643;SDS011;1838;50.742;7.158;2023-07-31T03:56:05;4.60;;;3.23;;
3643;SDS011;1838;50.742;7.158;2023-07-31T03:58:31;7.00;;;3.37;;
3643;SDS011;1838;50.742;7.158;2023-07-31T04:00:57;5.43;;;3.53;;
3643;SDS011;1838;50.742;7.158;2023-07-31T04:03:22;5.53;;;2.93;;
3643;SDS011;1838;50.742;7.158;2023-07-31T04:05:48;7.60;;;3.67;;
3643;SDS011;1838;50.742;7.158;2023-07-31T04:08:13;7.33;;;3.60;;
3643;SDS011;1838;50.742;7.158;2023-07-31T04:10:38;7.43;;;4.00;;
3643;SDS011;1838;50.742;7.158;2023-07-31T04:13:04;4.30;;;2.87;;
3643;SDS011;1838;50.742;7.158;2023-07-31T04:15:29;8.13;;;4.10;;
3643;SDS011;1838;50.742;7.158;2023-07-31T04:17:55;8.17;;;3.80;;
3643;SDS011;1838;50.742;7.158;2023-07-31T04:20:20;8.73;;;3.97;;
3643;SDS011;1838;50.742;7.158;2023-07-31T04:22:46;6.10;;;3.40;;
3643;SDS011;1838;50.742;7.158;2023-07-31T04:25:12;6.90;;;3.00;;
3643;SDS011;1838;50.742;7.158;2023-07-31T04:27:37;19.00;;;4.07;;
3643;SDS011;1838;50.742;7.158;2023-07-31T04:30:03;9.50;;;3.60;;
3643;SDS011;1838;50.742;7.158;2023-07-31T04:32:29;7.60;;;3.20;;
3643;SDS011;1838;50.742;7.158;2023-07-31T04:34:55;6.60;;;3.83;;
3643;SDS011;1838;50.742;7.158;2023-07-31T04:37:20;4.40;;;3.53;;
3643;SDS011;1838;50.742;7.158;2023-07-31T04:39:46;4.90;;;4.00;;
3643;SDS011;1838;50.742;7.158;2023-07-31T04:42:12;4.47;;;3.90;;
3643;SDS011;1838;50.742;7.158;2023-07-31T04:44:37;7.73;;;4.40;;
3643;SDS011;1838;50.742;7.158;2023-07-31T04:47:03;8.67;;;3.47;;
3643;SDS011;1838;50.742;7.158;2023-07-31T04:49:28;6.60;;;3.30;;
3643;SDS011;1838;50.742;7.158;2023-07-31T04:51:54;16.67;;;3.90;;
3643;SDS011;1838;50.742;7.158;2023-07-31T04:54:19;4.03;;;3.13;;
3643;SDS011;1838;50.742;7.158;2023-07-31T04:56:45;7.10;;;3.80;;
3643;SDS011;1838;50.742;7.158;2023-07-31T04:59:10;9.13;;;3.50;;
3643;SDS011;1838;50.742;7.158;2023-07-31T05:01:36;10.40;;;3.80;;
3643;SDS011;1838;50.742;7.158;2023-07-31T05:04:01;16.57;;;3.87;;
3643;SDS011;1838;50.742;7.158;2023-07-31T05:06:27;9.70;;;3.97;;
3643;SDS011;1838;50.742;7.158;2023-07-31T05:08:52;5.77;;;3.63;;
3643;SDS011;1838;50.742;7.158;2023-07-31T05:11:18;8.40;;;4.80;;
3643;SDS011;1838;50.742;7.158;2023-07-31T05:13:43;5.70;;;4.27;;
3643;SDS011;1838;50.742;7.158;2023-07-31T05:16:09;6.83;;;3.40;;
3643;SDS011;1838;50.742;7.158;2023-07-31T05:18:34;5.97;;;3.80;;
3643;SDS011;1838;50.742;7.158;2023-07-31T05:21:00;6.97;;;4.30;;
3643;SDS011;1838;50.742;7.158;2023-07-31T05:23:25;5.27;;;3.27;;
3643;SDS011;1838;50.742;7.158;2023-07-31T05:25:51;11.50;;;3.90;;
3643;SDS011;1838;50.742;7.158;2023-07-31T05:28:16;4.33;;;3.20;;
3643;SDS011;1838;50.742;7.158;2023-07-31T05:30:42;5.23;;;3.90;;
3643;SDS011;1838;50.742;7.158;2023-07-31T05:33:08;6.10;;;3.67;;
3643;SDS011;1838;50.742;7.158;2023-07-31T05:35:33;11.57;;;4.73;;
3643;SDS011;1838;50.742;7.158;2023-07-31T05:37:59;5.33;;;3.57;;
3643;SDS011;1838;50.742;7.158;2023-07-31T05:40:24;5.70;;;3.33;;
3643;SDS011;1838;50.742;7.158;2023-07-31T05:42:50;4.13;;;3.17;;
3643;SDS011;1838;50.742;7.158;2023-07-31T05:45:15;3.80;;;3.07;;
3643;SDS011;1838;50.742;7.158;2023-07-31T05:47:41;4.30;;;3.10;;
3643;SDS011;1838;50.742;7.158;2023-07-31T05:50:06;7.23;;;3.53;;
3643;SDS011;1838;50.742;7.158;2023-07-31T05:52:32;4.37;;;3.03;;
3643;SDS011;1838;50.742;7.158;2023-07-31T05:54:58;6.57;;;4.07;;
3643;SDS011;1838;50.742;7.158;2023-07-31T05:57:23;6.20;;;3.27;;
3643;SDS011;1838;50.742;7.158;2023-07-31T05:59:48;4.63;;;3.60;;
3643;SDS011;1838;50.742;7.158;2023-07-31T06:02:14;5.43;;;3.83;;
3643;SDS011;1838;50.742;7.158;2023-07-31T06:04:40;11.60;;;3.80;;
3643;SDS011;1838;50.742;7.158;2023-07-31T06:07:05;11.30;;;3.20;;
3643;SDS011;1838;50.742;7.158;2023-07-31T06:09:32;6.73;;;3.10;;
3643;SDS011;1838;50.742;7.158;2023-07-31T06:11:57;6.30;;;3.50;;
3643;SDS011;1838;50.742;7.158;2023-07-31T06:14:23;9.47;;;4.07;;
3643;SDS011;1838;50.742;7.158;2023-07-31T06:16:49;5.77;;;3.90;;
3643;SDS011;1838;50.742;7.158;2023-07-31T06:19:14;7.00;;;3.43;;
3643;SDS011;1838;50.742;7.158;2023-07-31T06:21:40;5.00;;;3.77;;
3643;SDS011;1838;50.742;7.158;2023-07-31T06:24:07;8.80;;;4.03;;
3643;SDS011;1838;50.742;7.158;2023-07-31T06:26:33;6.97;;;3.37;;
3643;SDS011;1838;50.742;7.158;2023-07-31T06:28:58;4.77;;;3.90;;
3643;SDS011;1838;50.742;7.158;2023-07-31T06:31:24;13.93;;;5.13;;
3643;SDS011;1838;50.742;7.158;2023-07-31T06:33:50;6.13;;;4.10;;
3643;SDS011;1838;50.742;7.158;2023-07-31T06:36:16;10.33;;;4.53;;
3643;SDS011;1838;50.742;7.158;2023-07-31T06:38:42;7.13;;;4.83;;
3643;SDS011;1838;50.742;7.158;2023-07-31T06:41:07;6.93;;;4.37;;
3643;SDS011;1838;50.742;7.158;2023-07-31T06:43:33;14.13;;;5.00;;
3643;SDS011;1838;50.742;7.158;2023-07-31T06:46:00;9.67;;;4.63;;
3643;SDS011;1838;50.742;7.158;2023-07-31T06:48:30;7.77;;;3.93;;
3643;SDS011;1838;50.742;7.158;2023-07-31T06:50:56;7.60;;;4.90;;
3643;SDS011;1838;50.742;7.158;2023-07-31T06:53:21;11.30;;;3.90;;
3643;SDS011;1838;50.742;7.158;2023-07-31T06:55:47;8.27;;;3.90;;
3643;SDS011;1838;50.742;7.158;2023-07-31T06:58:13;7.33;;;4.70;;
3643;SDS011;1838;50.742;7.158;2023-07-31T07:00:38;5.73;;;4.13;;
3643;SDS011;1838;50.742;7.158;2023-07-31T07:03:04;5.60;;;4.07;;
3643;SDS011;1838;50.742;7.158;2023-07-31T07:05:29;5.57;;;4.03;;
3643;SDS011;1838;50.742;7.158;2023-07-31T07:07:55;7.87;;;4.23;;
3643;SDS011;1838;50.742;7.158;2023-07-31T07:10:20;6.07;;;4.53;;
3643;SDS011;1838;50.742;7.158;2023-07-31T07:12:46;5.00;;;3.77;;
3643;SDS011;1838;50.742;7.158;2023-07-31T07:15:12;10.13;;;4.60;;
3643;SDS011;1838;50.742;7.158;2023-07-31T07:17:38;6.70;;;4.30;;
3643;SDS011;1838;50.742;7.158;2023-07-31T07:20:03;6.43;;;4.27;;
3643;SDS011;1838;50.742;7.158;2023-07-31T07:22:29;7.70;;;3.93;;
3643;SDS011;1838;50.742;7.158;2023-07-31T07:24:55;6.27;;;3.63;;
3643;SDS011;1838;50.742;7.158;2023-07-31T07:27:35;8.00;;;3.70;;
3643;SDS011;1838;50.742;7.158;2023-07-31T07:30:00;16.50;;;4.10;;
3643;SDS011;1838;50.742;7.158;2023-07-31T07:32:26;7.53;;;4.43;;
3643;SDS011;1838;50.742;7.158;2023-07-31T07:34:51;11.63;;;3.97;;
3643;SDS011;1838;50.742;7.158;2023-07-31T07:37:17;7.50;;;4.03;;
3643;SDS011;1838;50.742;7.158;2023-07-31T07:39:43;8.97;;;4.70;;
3643;SDS011;1838;50.742;7.158;2023-07-31T07:42:08;7.63;;;4.37;;
3643;SDS011;1838;50.742;7.158;2023-07-31T07:44:34;9.13;;;4.60;;
3643;SDS011;1838;50.742;7.158;2023-07-31T07:46:59;6.50;;;3.90;;
3643;SDS011;1838;50.742;7.158;2023-07-31T07:49:25;5.63;;;3.90;;
3643;SDS011;1838;50.742;7.158;2023-07-31T07:51:50;8.93;;;4.77;;
3643;SDS011;1838;50.742;7.158;2023-07-31T07:54:16;8.10;;;4.00;;
3643;SDS011;1838;50.742;7.158;2023-07-31T07:56:42;6.43;;;4.30;;
3643;SDS011;1838;50.742;7.158;2023-07-31T07:59:07;11.50;;;4.93;;
3643;SDS011;1838;50.742;7.158;2023-07-31T08:01:33;9.97;;;5.30;;
3643;SDS011;1838;50.742;7.158;2023-07-31T08:03:59;5.83;;;4.50;;
3643;SDS011;1838;50.742;7.158;2023-07-31T08:06:24;7.30;;;4.53;;
3643;SDS011;1838;50.742;7.158;2023-07-31T08:08:50;9.47;;;4.30;;
3643;SDS011;1838;50.742;7.158;2023-07-31T08:11:15;7.53;;;4.07;;
3643;SDS011;1838;50.742;7.158;2023-07-31T08:13:41;5.80;;;4.00;;
3643;SDS011;1838;50.742;7.158;2023-07-31T08:16:06;5.30;;;3.90;;
3643;SDS011;1838;50.742;7.158;2023-07-31T08:18:32;12.13;;;3.93;;
3643;SDS011;1838;50.742;7.158;2023-07-31T08:20:58;5.40;;;3.83;;
3643;SDS011;1838;50.742;7.158;2023-07-31T08:23:24;13.37;;;4.30;;
3643;SDS011;1838;50.742;7.158;2023-07-31T08:25:49;8.40;;;4.03;;
3643;SDS011;1838;50.742;7.158;2023-07-31T08:28:15;6.90;;;4.40;;
3643;SDS011;1838;50.742;7.158;2023-07-31T08:30:41;8.50;;;3.90;;
3643;SDS011;1838;50.742;7.158;2023-07-31T08:33:07;7.73;;;4.00;;
3643;SDS011;1838;50.742;7.158;2023-07-31T08:35:33;6.07;;;4.57;;
3643;SDS011;1838;50.742;7.158;2023-07-31T08:37:58;9.23;;;3.77;;
3643;SDS011;1838;50.742;7.158;2023-07-31T08:40:24;5.87;;;3.70;;
3643;SDS011;1838;50.742;7.158;2023-07-31T08:42:54;5.10;;;3.73;;
3643;SDS011;1838;50.742;7.158;2023-07-31T08:45:27;7.67;;;4.50;;
3643;SDS011;1838;50.742;7.158;2023-07-31T08:47:53;5.10;;;3.33;;
3643;SDS011;1838;50.742;7.158;2023-07-31T08:50:21;7.53;;;3.47;;
3643;SDS011;1838;50.742;7.158;2023-07-31T08:52:48;6.97;;;4.07;;
3643;SDS011;1838;50.742;7.158;2023-07-31T08:55:14;4.00;;;3.03;;
3643;SDS011;1838;50.742;7.158;2023-07-31T08:57:40;7.37;;;3.50;;
3643;SDS011;1838;50.742;7.158;2023-07-31T09:00:08;8.43;;;4.80;;
3643;SDS011;1838;50.742;7.158;2023-07-31T09:02:37;9.63;;;3.90;;
3643;SDS011;1838;50.742;7.158;2023-07-31T09:05:23;12.40;;;4.17;;
3643;SDS011;1838;50.742;7.158;2023-07-31T09:07:51;7.50;;;4.70;;
3643;SDS011;1838;50.742;7.158;2023-07-31T09:10:16;4.93;;;3.50;;
3643;SDS011;1838;50.742;7.158;2023-07-31T09:12:42;5.50;;;3.50;;
3643;SDS011;1838;50.742;7.158;2023-07-31T09:15:08;12.40;;;4.87;;
3643;SDS011;1838;50.742;7.158;2023-07-31T09:17:35;9.27;;;3.80;;
3643;SDS011;1838;50.742;7.158;2023-07-31T09:20:12;8.83;;;5.07;;
3643;SDS011;1838;50.742;7.158;2023-07-31T09:22:39;7.47;;;5.10;;
3643;SDS011;1838;50.742;7.158;2023-07-31T09:30:16;13.50;;;4.47;;
3643;SDS011;1838;50.742;7.158;2023-07-31T09:32:44;8.90;;;4.63;;
3643;SDS011;1838;50.742;7.158;2023-07-31T09:35:20;19.03;;;5.70;;
3643;SDS011;1838;50.742;7.158;2023-07-31T09:37:53;8.57;;;4.80;;
3643;SDS011;1838;50.742;7.158;2023-07-31T09:40:34;10.07;;;5.13;;
3643;SDS011;1838;50.742;7.158;2023-07-31T09:43:05;14.50;;;6.37;;
3643;SDS011;1838;50.742;7.158;2023-07-31T09:45:35;6.90;;;4.40;;
3643;SDS011;1838;50.742;7.158;2023-07-31T09:48:09;7.40;;;4.83;;
3643;SDS011;1838;50.742;7.158;2023-07-31T09:50:39;4.67;;;4.27;;
3643;SDS011;1838;50.742;7.158;2023-07-31T09:53:07;7.57;;;5.20;;
3643;SDS011;1838;50.742;7.158;2023-07-31T09:55:33;16.40;;;5.33;;
3643;SDS011;1838;50.742;7.158;2023-07-31T09:57:59;7.97;;;4.23;;
3643;SDS011;1838;50.742;7.158;2023-07-31T10:00:29;9.30;;;4.37;;
3643;SDS011;1838;50.742;7.158;2023-07-31T10:02:56;6.50;;;4.17;;
3643;SDS011;1838;50.742;7.158;2023-07-31T10:05:24;8.47;;;5.13;;
3643;SDS011;1838;50.742;7.158;2023-07-31T10:07:59;7.60;;;5.00;;
3643;SDS011;1838;50.742;7.158;2023-07-31T10:10:25;12.33;;;4.70;;
3643;SDS011;1838;50.742;7.158;2023-07-31T10:12:52;10.10;;;4.80;;
3643;SDS011;1838;50.742;7.158;2023-07-31T10:15:19;8.00;;;3.70;;
3643;SDS011;1838;50.742;7.158;2023-07-31T10:17:47;7.20;;;4.13;;
3643;SDS011;1838;50.742;7.158;2023-07-31T10:20:14;4.30;;;3.63;;
3643;SDS011;1838;50.742;7.158;2023-07-31T10:22:43;5.27;;;3.57;;
3643;SDS011;1838;50.742;7.158;2023-07-31T10:25:12;9.20;;;4.43;;
3643;SDS011;1838;50.742;7.158;2023-07-31T10:27:38;6.07;;;3.20;;
3643;SDS011;1838;50.742;7.158;2023-07-31T10:30:05;6.47;;;3.67;;
3643;SDS011;1838;50.742;7.158;2023-07-31T10:32:33;5.57;;;3.80;;
3643;SDS011;1838;50.742;7.158;2023-07-31T10:35:00;8.27;;;3.87;;
3643;SDS011;1838;50.742;7.158;2023-07-31T10:37:29;4.90;;;3.10;;
3643;SDS011;1838;50.742;7.158;2023-07-31T10:40:11;4.53;;;3.13;;
3643;SDS011;1838;50.742;7.158;2023-07-31T10:42:47;4.50;;;2.97;;
3643;SDS011;1838;50.742;7.158;2023-07-31T10:45:32;9.53;;;3.07;;
3643;SDS011;1838;50.742;7.158;2023-07-31T10:48:05;4.53;;;3.37;;
3643;SDS011;1838;50.742;7.158;2023-07-31T10:50:48;6.07;;;3.57;;
3643;SDS011;1838;50.742;7.158;2023-07-31T10:53:24;3.23;;;2.60;;
3643;SDS011;1838;50.742;7.158;2023-07-31T10:55:58;6.20;;;2.97;;
3643;SDS011;1838;50.742;7.158;2023-07-31T10:58:24;4.10;;;2.90;;
3643;SDS011;1838;50.742;7.158;2023-07-31T11:00:51;8.20;;;2.90;;
3643;SDS011;1838;50.742;7.158;2023-07-31T11:03:24;5.90;;;2.70;;
3643;SDS011;1838;50.742;7.158;2023-07-31T11:10:46;3.40;;;2.43;;
3643;SDS011;1838;50.742;7.158;2023-07-31T11:13:12;2.73;;;2.43;;
3643;SDS011;1838;50.742;7.158;2023-07-31T11:15:39;3.47;;;2.03;;
3643;SDS011;1838;50.742;7.158;2023-07-31T11:18:04;3.53;;;2.10;;
3643;SDS011;1838;50.742;7.158;2023-07-31T11:20:35;3.93;;;3.40;;
3643;SDS011;1838;50.742;7.158;2023-07-31T11:23:02;3.60;;;1.80;;
3643;SDS011;1838;50.742;7.158;2023-07-31T11:25:29;3.97;;;2.00;;
3643;SDS011;1838;50.742;7.158;2023-07-31T11:28:01;4.03;;;1.60;;
3643;SDS011;1838;50.742;7.158;2023-07-31T11:30:31;5.10;;;2.00;;
3643;SDS011;1838;50.742;7.158;2023-07-31T11:32:57;2.60;;;1.67;;
3643;SDS011;1838;50.742;7.158;2023-07-31T11:35:22;2.73;;;2.00;;
3643;SDS011;1838;50.742;7.158;2023-07-31T11:37:48;3.33;;;2.47;;
3643;SDS011;1838;50.742;7.158;2023-07-31T11:40:14;2.50;;;1.70;;
3643;SDS011;1838;50.742;7.158;2023-07-31T11:42:40;2.90;;;1.43;;
3643;SDS011;1838;50.742;7.158;2023-07-31T11:45:06;3.40;;;2.20;;
3643;SDS011;1838;50.742;7.158;2023-07-31T11:47:33;3.40;;;1.80;;
3643;SDS011;1838;50.742;7.158;2023-07-31T11:50:00;3.80;;;1.50;;
3643;SDS011;1838;50.742;7.158;2023-07-31T11:52:27;2.10;;;1.43;;
3643;SDS011;1838;50.742;7.158;2023-07-31T11:54:56;1.90;;;1.40;;
3643;SDS011;1838;50.742;7.158;2023-07-31T11:57:22;2.60;;;1.30;;
3643;SDS011;1838;50.742;7.158;2023-07-31T11:59:49;3.97;;;1.50;;
3643;SDS011;1838;50.742;7.158;2023-07-31T12:02:16;1.77;;;1.27;;
3643;SDS011;1838;50.742;7.158;2023-07-31T12:04:43;3.60;;;1.60;;
3643;SDS011;1838;50.742;7.158;2023-07-31T12:07:08;4.17;;;1.43;;
3643;SDS011;1838;50.742;7.158;2023-07-31T12:09:34;2.27;;;1.10;;
3643;SDS011;1838;50.742;7.158;2023-07-31T12:12:00;5.20;;;1.70;;
3643;SDS011;1838;50.742;7.158;2023-07-31T12:14:26;2.50;;;1.57;;
3643;SDS011;1838;50.742;7.158;2023-07-31T12:16:56;2.40;;;1.30;;
3643;SDS011;1838;50.742;7.158;2023-07-31T12:19:24;2.73;;;1.70;;
3643;SDS011;1838;50.742;7.158;2023-07-31T12:21:53;2.10;;;1.50;;
3643;SDS011;1838;50.742;7.158;2023-07-31T12:24:19;3.53;;;2.17;;
3643;SDS011;1838;50.742;7.158;2023-07-31T12:26:45;2.60;;;2.20;;
3643;SDS011;1838;50.742;7.158;2023-07-31T12:29:13;2.30;;;1.80;;
3643;SDS011;1838;50.742;7.158;2023-07-31T12:31:40;3.30;;;2.40;;
3643;SDS011;1838;50.742;7.158;2023-07-31T12:34:14;3.47;;;2.50;;
3643;SDS011;1838;50.742;7.158;2023-07-31T12:36:42;2.83;;;2.10;;
3643;SDS011;1838;50.742;7.158;2023-07-31T12:39:08;4.13;;;2.80;;
3643;SDS011;1838;50.742;7.158;2023-07-31T12:41:34;4.00;;;2.80;;
3643;SDS011;1838;50.742;7.158;2023-07-31T12:43:59;3.57;;;2.53;;
3643;SDS011;1838;50.742;7.158;2023-07-31T12:46:25;5.10;;;3.23;;
3643;SDS011;1838;50.742;7.158;2023-07-31T12:48:50;5.50;;;2.67;;
3643;SDS011;1838;50.742;7.158;2023-07-31T12:51:16;6.27;;;3.07;;
3643;SDS011;1838;50.742;7.158;2023-07-31T12:53:42;4.27;;;3.60;;
3643;SDS011;1838;50.742;7.158;2023-07-31T12:56:07;4.23;;;3.00;;
3643;SDS011;1838;50.742;7.158;2023-07-31T12:58:32;3.90;;;3.50;;
3643;SDS011;1838;50.742;7.158;2023-07-31T13:00:58;4.47;;;3.40;;
3643;SDS011;1838;50.742;7.158;2023-07-31T13:03:23;5.73;;;3.60;;
3643;SDS011;1838;50.742;7.158;2023-07-31T13:05:49;4.73;;;3.30;;
3643;SDS011;1838;50.742;7.158;2023-07-31T13:08:15;6.07;;;3.30;;
3643;SDS011;1838;50.742;7.158;2023-07-31T13:10:42;4.53;;;4.10;;
3643;SDS011;1838;50.742;7.158;2023-07-31T13:13:09;6.23;;;3.80;;
3643;SDS011;1838;50.742;7.158;2023-07-31T13:15:35;4.40;;;3.43;;
3643;SDS011;1838;50.742;7.158;2023-07-31T13:18:00;4.73;;;3.50;;
3643;SDS011;1838;50.742;7.158;2023-07-31T13:20:26;7.17;;;4.07;;
3643;SDS011;1838;50.742;7.158;2023-07-31T13:22:52;4.80;;;3.50;;
3643;SDS011;1838;50.742;7.158;2023-07-31T13:25:17;10.40;;;4.40;;
3643;SDS011;1838;50.742;7.158;2023-07-31T13:27:43;6.27;;;4.00;;
3643;SDS011;1838;50.742;7.158;2023-07-31T13:30:08;4.53;;;4.10;;
3643;SDS011;1838;50.742;7.158;2023-07-31T13:32:34;4.27;;;3.87;;
3643;SDS011;1838;50.742;7.158;2023-07-31T13:35:03;5.27;;;3.87;;
3643;SDS011;1838;50.742;7.158;2023-07-31T13:37:33;6.57;;;3.93;;
3643;SDS011;1838;50.742;7.158;2023-07-31T13:39:59;3.30;;;2.70;;
3643;SDS011;1838;50.742;7.158;2023-07-31T13:42:24;4.97;;;3.00;;
3643;SDS011;1838;50.742;7.158;2023-07-31T13:44:50;3.67;;;3.37;;
3643;SDS011;1838;50.742;7.158;2023-07-31T13:47:15;3.77;;;2.90;;
3643;SDS011;1838;50.742;7.158;2023-07-31T13:49:41;3.07;;;2.40;;
3643;SDS011;1838;50.742;7.158;2023-07-31T13:52:08;2.87;;;2.10;;
3643;SDS011;1838;50.742;7.158;2023-07-31T13:54:33;3.30;;;2.67;;
3643;SDS011;1838;50.742;7.158;2023-07-31T13:56:59;2.27;;;1.83;;
3643;SDS011;1838;50.742;7.158;2023-07-31T13:59:25;3.50;;;1.97;;
3643;SDS011;1838;50.742;7.158;2023-07-31T14:01:50;3.00;;;2.40;;
3643;SDS011;1838;50.742;7.158;2023-07-31T14:04:16;3.50;;;2.03;;
3643;SDS011;1838;50.742;7.158;2023-07-31T14:06:42;2.30;;;2.10;;
3643;SDS011;1838;50.742;7.158;2023-07-31T14:09:08;2.43;;;1.93;;
3643;SDS011;1838;50.742;7.158;2023-07-31T14:11:34;4.13;;;2.23;;
3643;SDS011;1838;50.742;7.158;2023-07-31T14:13:59;4.10;;;3.00;;
3643;SDS011;1838;50.742;7.158;2023-07-31T14:16:26;4.53;;;2.57;;
3643;SDS011;1838;50.742;7.158;2023-07-31T14:18:53;2.60;;;2.40;;
3643;SDS011;1838;50.742;7.158;2023-07-31T14:21:18;3.40;;;1.83;;
3643;SDS011;1838;50.742;7.158;2023-07-31T14:23:44;2.00;;;1.70;;
3643;SDS011;1838;50.742;7.158;2023-07-31T14:26:10;2.60;;;2.40;;
3643;SDS011;1838;50.742;7.158;2023-07-31T14:28:36;10.23;;;2.20;;
3643;SDS011;1838;50.742;7.158;2023-07-31T14:31:01;2.87;;;2.00;;
3643;SDS011;1838;50.742;7.158;2023-07-31T14:33:27;4.23;;;2.50;;
3643;SDS011;1838;50.742;7.158;2023-07-31T14:35:53;2.87;;;1.80;;
3643;SDS011;1838;50.742;7.158;2023-07-31T14:38:19;2.60;;;1.97;;
3643;SDS011;1838;50.742;7.158;2023-07-31T14:40:44;2.37;;;2.17;;
3643;SDS011;1838;50.742;7.158;2023-07-31T14:43:10;4.40;;;2.63;;
3643;SDS011;1838;50.742;7.158;2023-07-31T14:45:35;4.27;;;2.40;;
3643;SDS011;1838;50.742;7.158;2023-07-31T14:48:01;2.90;;;2.30;;
3643;SDS011;1838;50.742;7.158;2023-07-31T14:50:27;2.70;;;2.30;;
3643;SDS011;1838;50.742;7.158;2023-07-31T14:52:53;2.57;;;1.50;;
3643;SDS011;1838;50.742;7.158;2023-07-31T14:55:19;3.17;;;1.87;;
3643;SDS011;1838;50.742;7.158;2023-07-31T14:57:44;2.97;;;2.00;;
3643;SDS011;1838;50.742;7.158;2023-07-31T15:00:10;3.10;;;1.90;;
3643;SDS011;1838;50.742;7.158;2023-07-31T15:02:36;5.20;;;2.63;;
3643;SDS011;1838;50.742;7.158;2023-07-31T15:05:03;5.60;;;2.00;;
3643;SDS011;1838;50.742;7.158;2023-07-31T15:07:29;4.47;;;2.70;;
3643;SDS011;1838;50.742;7.158;2023-07-31T15:09:54;2.40;;;1.90;;
3643;SDS011;1838;50.742;7.158;2023-07-31T15:12:20;2.87;;;1.90;;
3643;SDS011;1838;50.742;7.158;2023-07-31T15:14:47;3.67;;;2.60;;
3643;SDS011;1838;50.742;7.158;2023-07-31T15:17:14;2.40;;;1.93;;
3643;SDS011;1838;50.742;7.158;2023-07-31T15:19:39;2.57;;;1.93;;
3643;SDS011;1838;50.742;7.158;2023-07-31T15:22:05;3.90;;;1.83;;